Clarence Center, New York
Current Conditions -  °F | °C
As of 2:54 PM on Saturday 20 Dec 2014 (Local Time) from KBUF Reporting Station
Broken Clouds Broken Clouds  
Wind Chill: 22°   Ceiling: 2200
Heat Index: 30°   Visibility: 10mi
Dew Point: 22°   Wind: 9mph
Humidity: 72%   Direction: 210°SSW
Pressure: 30.23"   Gusts: NA
Location:  43.01°N, 78.63°W
Report Text: KBUF 201954Z 21008KT 10SM BKN022 BKN180 BKN250 M01/M06 A3023 RMK AO2 SLP248 T10111056
Loading
Personal Weather Stations






























Interactive Weather Map New forecast layout! Learn more

10-Day Weather Forecast

Advertisements
Track Severe Weather on mobile